Time;durP1;ratioP1;P1;durP2;ratioP2;P2;SDS_P1;SDS_P2;PMS_P1;PMS_P2;Temp;Humidity;BMP_temperature;BMP_pressure;BME280_temperature;BME280_humidity;BME280_pressure;Samples;Min_cycle;Max_cycle;Signal;HPM_P1;HPM_P2
2023/09/23 00:01:04;;;;;;;13.60;7.80;;;;;;;19.74;85.73;97050.06;106628;1271;22595;-82
2023/09/23 00:03:36;;;;;;;13.40;7.90;;;;;;;19.70;85.71;97053.46;106592;1271;22600;-81
2023/09/23 00:06:07;;;;;;;13.30;8.00;;;;;;;19.64;85.89;97046.69;106702;1277;24385;-82
2023/09/23 00:08:35;;;;;;;14.70;7.70;;;;;;;19.61;86.38;97050.39;106640;1284;22582;-81
2023/09/23 00:11:04;;;;;;;14.90;7.00;;;;;;;19.58;86.53;97054.19;106631;1274;22784;-82
2023/09/23 00:13:32;;;;;;;12.60;7.20;;;;;;;19.60;86.35;97064.05;106746;1284;22566;-82
2023/09/23 00:16:10;;;;;;;13.70;7.50;;;;;;;19.64;86.31;97072.85;106642;1284;22544;-81
2023/09/23 00:18:38;;;;;;;14.00;8.40;;;;;;;19.67;86.29;97074.52;106537;1269;25376;-81
2023/09/23 00:21:08;;;;;;;12.60;7.70;;;;;;;19.68;86.27;97076.95;106554;1284;24396;-81
2023/09/23 00:23:37;;;;;;;13.30;7.20;;;;;;;19.66;86.38;97075.92;106638;1269;22552;-82
2023/09/23 00:26:49;;;;;;;16.70;7.20;;;;;;;19.65;86.34;97072.55;106608;1284;24210;-82
2023/09/23 00:31:25;;;;;;;18.20;7.20;;;;;;;19.65;86.10;97071.55;102608;1268;5095204;-82
2023/09/23 00:35:52;;;;;;;13.40;7.20;;;;;;;19.67;86.44;97070.86;106222;1279;24245;-82
2023/09/23 00:40:30;;;;;;;13.70;7.00;;;;;;;19.61;86.25;97074.45;105655;1280;27306;-81
2023/09/23 00:44:09;;;;;;;12.30;6.80;;;;;;;19.55;86.70;97080.88;105269;1296;26529;-81
2023/09/23 00:47:19;;;;;;;13.10;6.50;;;;;;;19.56;86.54;97076.58;105335;1289;25391;-81
2023/09/23 00:49:48;;;;;;;13.70;6.30;;;;;;;19.56;86.55;97076.51;105592;1295;25437;-82
2023/09/23 00:52:16;;;;;;;14.70;7.70;;;;;;;19.54;86.85;97077.98;105697;1295;23323;-81
2023/09/23 00:54:49;;;;;;;16.10;6.90;;;;;;;19.52;86.83;97078.74;105692;1288;24066;-82
2023/09/23 00:57:17;;;;;;;12.50;7.00;;;;;;;19.45;87.32;97083.98;105796;1292;22671;-82
2023/09/23 00:59:46;;;;;;;13.90;7.40;;;;;;;19.35;88.18;97085.91;105958;1283;25735;-82
2023/09/23 01:02:14;;;;;;;12.40;7.50;;;;;;;19.22;88.63;97080.50;105921;1283;23193;-80
2023/09/23 01:04:43;;;;;;;14.30;7.60;;;;;;;19.12;89.06;97081.48;105934;1283;22935;-80
2023/09/23 01:07:11;;;;;;;15.50;8.60;;;;;;;19.02;89.40;97085.51;105967;1281;25512;-81
2023/09/23 01:09:40;;;;;;;17.70;9.60;;;;;;;18.93;91.54;97097.11;106279;1276;22655;-81
2023/09/23 01:12:09;;;;;;;16.80;10.20;;;;;;;18.81;93.12;97107.66;106469;1270;22641;-83
2023/09/23 01:14:37;;;;;;;14.80;12.90;;;;;;;18.68;94.53;97108.41;106723;1284;22794;-82
2023/09/23 01:17:09;;;;;;;20.90;15.40;;;;;;;18.59;96.32;97113.60;107235;1274;22567;-82
2023/09/23 01:19:38;;;;;;;20.50;15.90;;;;;;;18.48;95.37;97117.51;106846;1284;22844;-81
2023/09/23 01:22:06;;;;;;;17.90;14.80;;;;;;;18.44;94.58;97116.74;106575;1284;25349;-83
2023/09/23 01:24:34;;;;;;;20.50;16.40;;;;;;;18.42;94.15;97119.61;106603;1284;22961;-83
2023/09/23 01:27:03;;;;;;;25.00;21.70;;;;;;;18.43;96.60;97126.94;106541;1278;23313;-82
2023/09/23 01:29:32;;;;;;;25.80;22.10;;;;;;;18.42;97.83;97129.36;106672;1276;22700;-83
2023/09/23 01:32:05;;;;;;;23.40;20.90;;;;;;;18.36;95.81;97122.81;106622;1281;24376;-82
2023/09/23 01:34:34;;;;;;;25.30;22.30;;;;;;;18.38;97.02;97131.40;106640;1271;25560;-82
2023/09/23 01:37:03;;;;;;;27.80;25.00;;;;;;;18.36;99.86;97132.40;106573;1273;22654;-82
2023/09/23 01:39:32;;;;;;;26.40;23.30;;;;;;;18.31;100.00;97136.98;106511;1278;22553;-83
2023/09/23 01:42:00;;;;;;;29.30;26.60;;;;;;;18.25;100.00;97141.82;106545;1275;22568;-83
2023/09/23 01:44:30;;;;;;;27.50;24.30;;;;;;;18.15;100.00;97142.22;106580;1262;22773;-82
2023/09/23 01:46:58;;;;;;;25.50;22.90;;;;;;;18.06;100.00;97138.26;106565;1277;22775;-82
2023/09/23 01:49:27;;;;;;;24.10;21.80;;;;;;;17.96;100.00;97135.69;106627;1275;22576;-82
2023/09/23 01:51:55;;;;;;;26.60;24.20;;;;;;;17.84;100.00;97134.73;106496;1279;24209;-83
2023/09/23 01:54:23;;;;;;;27.20;24.30;;;;;;;17.71;100.00;97137.36;106385;1271;22647;-84
2023/09/23 01:56:51;;;;;;;30.80;24.40;;;;;;;17.57;100.00;97142.72;106429;1284;23467;-81
2023/09/23 01:59:19;;;;;;;30.00;26.90;;;;;;;17.43;100.00;97143.95;106560;1277;22566;-82
2023/09/23 02:01:48;;;;;;;27.00;24.30;;;;;;;17.25;100.00;97152.18;106498;1284;22588;-83
2023/09/23 02:04:17;;;;;;;26.90;24.30;;;;;;;16.98;100.00;97159.60;106544;1269;22652;-83
2023/09/23 02:06:46;;;;;;;26.60;24.10;;;;;;;16.79;100.00;97166.67;106570;1271;23893;-81
2023/09/23 02:09:14;;;;;;;28.80;23.60;;;;;;;16.71;100.00;97166.73;106617;1281;22579;-81
2023/09/23 02:11:42;;;;;;;29.50;26.60;;;;;;;16.66;100.00;97170.17;106466;1274;22537;-81
2023/09/23 02:14:10;;;;;;;27.00;24.30;;;;;;;16.54;100.00;97173.73;106601;1281;22688;-81
2023/09/23 02:16:39;;;;;;;29.20;26.50;;;;;;;16.47;100.00;97164.79;106531;1274;22544;-81
2023/09/23 02:19:07;;;;;;;29.00;26.20;;;;;;;16.41;100.00;97167.30;106619;1273;23428;-81
2023/09/23 02:21:35;;;;;;;31.70;28.70;;;;;;;16.30;100.00;97162.89;106550;1271;23024;-81
2023/09/23 02:24:05;;;;;;;31.20;28.20;;;;;;;16.23;100.00;97164.97;106565;1284;25367;-82
2023/09/23 02:26:34;;;;;;;30.40;27.40;;;;;;;16.18;100.00;97170.20;106678;1277;22539;-82
2023/09/23 02:29:02;;;;;;;26.50;23.80;;;;;;;16.14;100.00;97175.77;106654;1270;25432;-82
2023/09/23 02:31:31;;;;;;;27.60;25.00;;;;;;;16.09;100.00;97189.58;106637;1283;26157;-84
2023/09/23 02:33:59;;;;;;;26.10;23.60;;;;;;;16.10;100.00;97202.78;107920;1278;22556;-81
2023/09/23 02:36:27;;;;;;;21.40;19.40;;;;;;;16.10;100.00;97204.64;107956;1281;22553;-82
2023/09/23 02:38:57;;;;;;;20.10;18.00;;;;;;;16.08;100.00;97199.56;108328;1281;22574;-80
2023/09/23 02:41:25;;;;;;;18.40;16.80;;;;;;;16.07;100.00;97194.49;107580;1284;22524;-81
2023/09/23 02:43:53;;;;;;;19.10;17.30;;;;;;;16.03;100.00;97190.67;106516;1282;24610;-81
2023/09/23 02:46:22;;;;;;;18.30;16.10;;;;;;;15.98;100.00;97201.72;106573;1281;24334;-81
2023/09/23 02:48:50;;;;;;;17.30;15.80;;;;;;;15.92;100.00;97201.58;106554;1284;22533;-81
2023/09/23 02:51:18;;;;;;;18.70;16.90;;;;;;;15.88;100.00;97202.71;106609;1277;22569;-81
2023/09/23 02:53:46;;;;;;;19.10;17.30;;;;;;;15.85;100.00;97206.70;106587;1262;22546;-81
2023/09/23 02:56:15;;;;;;;18.80;17.10;;;;;;;15.83;100.00;97217.19;106633;1262;25496;-83
2023/09/23 02:58:44;;;;;;;17.50;15.70;;;;;;;15.77;100.00;97217.88;106583;1269;24252;-82
2023/09/23 03:01:14;;;;;;;17.50;15.90;;;;;;;15.75;100.00;97218.45;106656;1268;25621;-82
2023/09/23 03:03:43;;;;;;;17.60;15.30;;;;;;;15.71;100.00;97221.16;106557;1278;24250;-82
2023/09/23 03:06:14;;;;;;;18.90;15.30;;;;;;;15.71;100.00;97228.60;106426;1284;25427;-82
2023/09/23 03:08:47;;;;;;;18.00;16.30;;;;;;;15.69;100.00;97229.40;106454;1271;22553;-82
2023/09/23 03:11:18;;;;;;;17.20;15.60;;;;;;;15.69;100.00;97220.62;106638;1278;22677;-83
2023/09/23 03:13:49;;;;;;;18.40;16.70;;;;;;;15.65;100.00;97210.89;106474;1273;22677;-83
2023/09/23 03:16:27;;;;;;;17.30;15.70;;;;;;;15.61;100.00;97222.95;106539;1274;25349;-83
2023/09/23 03:19:10;;;;;;;13.10;12.00;;;;;;;15.53;100.00;97231.43;106589;1274;23418;-83
2023/09/23 03:21:42;;;;;;;13.20;12.10;;;;;;;15.48;100.00;97234.16;106600;1271;22542;-83
2023/09/23 03:24:11;;;;;;;14.40;12.90;;;;;;;15.42;100.00;97237.40;106536;1284;22771;-82
2023/09/23 03:26:40;;;;;;;12.50;11.20;;;;;;;15.41;100.00;97237.45;106440;1272;25720;-83
2023/09/23 03:29:09;;;;;;;12.20;11.10;;;;;;;15.41;100.00;97241.35;106513;1278;24301;-83
2023/09/23 03:31:38;;;;;;;13.10;12.00;;;;;;;15.41;100.00;97243.08;106442;1271;23422;-83
2023/09/23 03:34:06;;;;;;;12.90;11.80;;;;;;;15.42;100.00;97247.05;106503;1284;22554;-83
2023/09/23 03:36:34;;;;;;;13.20;12.10;;;;;;;15.42;100.00;97262.17;106353;1276;22797;-83
2023/09/23 03:39:03;;;;;;;15.20;13.90;;;;;;;15.43;100.00;97271.58;106407;1271;22540;-83
2023/09/23 03:41:33;;;;;;;15.20;13.80;;;;;;;15.38;100.00;97268.70;106494;1278;24304;-83
2023/09/23 03:44:03;;;;;;;14.60;13.20;;;;;;;15.33;100.00;97280.13;106406;1264;24375;-80
2023/09/23 03:46:32;;;;;;;13.20;11.90;;;;;;;15.33;100.00;97281.77;106466;1271;25376;-82
2023/09/23 03:49:01;;;;;;;12.70;11.60;;;;;;;15.33;100.00;97282.53;106462;1265;23021;-82
2023/09/23 03:51:31;;;;;;;14.80;13.50;;;;;;;15.35;100.00;97287.87;106582;1271;25466;-81
2023/09/23 03:53:59;;;;;;;14.10;12.60;;;;;;;15.35;100.00;97288.65;106497;1274;22856;-83
2023/09/23 03:56:27;;;;;;;14.50;13.30;;;;;;;15.38;100.00;97287.96;106565;1271;22545;-83
2023/09/23 03:58:56;;;;;;;15.20;13.80;;;;;;;15.36;100.00;97285.11;106537;1270;23924;-82
2023/09/23 04:01:24;;;;;;;15.00;13.60;;;;;;;15.36;100.00;97290.00;106509;1278;22794;-80
2023/09/23 04:03:52;;;;;;;13.80;12.70;;;;;;;15.39;100.00;97297.06;106374;1271;22546;-81
2023/09/23 04:06:22;;;;;;;14.90;13.60;;;;;;;15.37;100.00;97289.48;106560;1274;22643;-81
2023/09/23 04:08:50;;;;;;;15.70;13.90;;;;;;;15.38;100.00;97287.36;106507;1282;22533;-81
2023/09/23 04:11:18;;;;;;;14.30;13.10;;;;;;;15.41;100.00;97278.65;106512;1284;22658;-81
2023/09/23 04:13:46;;;;;;;15.20;13.70;;;;;;;15.44;100.00;97275.02;106498;1284;23016;-81
2023/09/23 04:16:15;;;;;;;17.70;16.20;;;;;;;15.41;100.00;97273.07;106538;1278;22529;-82
2023/09/23 04:18:43;;;;;;;15.80;14.40;;;;;;;15.35;100.00;97268.09;106542;1269;25311;-82
2023/09/23 04:21:13;;;;;;;14.20;13.00;;;;;;;15.31;100.00;97265.18;106644;1268;24268;-81
2023/09/23 04:23:41;;;;;;;14.50;13.10;;;;;;;15.28;100.00;97262.54;106839;1280;25499;-82
2023/09/23 04:26:12;;;;;;;12.80;11.50;;;;;;;15.26;100.00;97258.21;106507;1270;22659;-81
2023/09/23 04:28:41;;;;;;;10.80;9.80;;;;;;;15.23;100.00;97260.23;106427;1285;24491;-82
2023/09/23 04:31:09;;;;;;;9.50;8.70;;;;;;;15.18;100.00;97272.35;106397;1285;22626;-81
2023/09/23 04:33:37;;;;;;;10.50;9.50;;;;;;;15.16;100.00;97284.16;106262;1284;23163;-82
2023/09/23 04:36:10;;;;;;;9.30;8.40;;;;;;;15.18;100.00;97291.20;106735;1272;22702;-81
2023/09/23 04:38:38;;;;;;;8.60;7.80;;;;;;;15.20;100.00;97294.66;106953;1271;22972;-81
2023/09/23 04:41:06;;;;;;;9.00;8.10;;;;;;;15.23;100.00;97296.73;107024;1279;22738;-82
2023/09/23 04:43:35;;;;;;;9.80;8.90;;;;;;;15.26;100.00;97309.08;106555;1278;23087;-82
2023/09/23 04:46:03;;;;;;;9.10;8.20;;;;;;;15.26;100.00;97307.86;106515;1271;22558;-81
2023/09/23 04:48:32;;;;;;;9.00;8.20;;;;;;;15.29;100.00;97297.16;106615;1274;23499;-82
2023/09/23 04:51:00;;;;;;;10.80;8.90;;;;;;;15.28;100.00;97291.01;106462;1285;25428;-81
2023/09/23 04:53:28;;;;;;;11.60;10.50;;;;;;;15.25;100.00;97284.01;106510;1285;24250;-81
2023/09/23 04:55:58;;;;;;;11.50;10.50;;;;;;;15.24;100.00;97278.64;106535;1281;22606;-81
2023/09/23 04:58:26;;;;;;;10.30;9.40;;;;;;;15.22;100.00;97274.56;106572;1278;22696;-81
2023/09/23 05:00:54;;;;;;;9.90;9.00;;;;;;;15.23;100.00;97280.23;106506;1284;25487;-81
2023/09/23 05:03:23;;;;;;;9.90;8.90;;;;;;;15.27;100.00;97277.71;106575;1280;23465;-81
2023/09/23 05:05:51;;;;;;;10.80;9.80;;;;;;;15.29;100.00;97282.49;106588;1284;22537;-81
2023/09/23 05:08:19;;;;;;;11.30;10.20;;;;;;;15.32;100.00;97285.70;106492;1278;22623;-81
2023/09/23 05:10:47;;;;;;;12.10;11.00;;;;;;;15.27;100.00;97298.58;106475;1271;22785;-80
2023/09/23 05:13:17;;;;;;;14.00;12.40;;;;;;;15.27;100.00;97314.02;106482;1278;24210;-81
2023/09/23 05:15:46;;;;;;;13.00;11.80;;;;;;;15.25;100.00;97330.08;106486;1278;24272;-80
2023/09/23 05:18:15;;;;;;;12.90;11.70;;;;;;;15.22;100.00;97326.58;106513;1273;22479;-80
2023/09/23 05:20:43;;;;;;;16.00;14.50;;;;;;;15.16;100.00;97322.68;106590;1283;22737;-80
2023/09/23 05:23:11;;;;;;;16.70;15.00;;;;;;;15.10;100.00;97330.25;106396;1286;22681;-81
2023/09/23 05:25:41;;;;;;;15.60;14.10;;;;;;;15.07;100.00;97338.77;106517;1274;22659;-81
2023/09/23 05:28:10;;;;;;;15.00;13.60;;;;;;;15.05;100.00;97333.98;106532;1275;24317;-80
2023/09/23 05:30:38;;;;;;;15.40;13.80;;;;;;;15.04;100.00;97339.85;106617;1268;25303;-80
2023/09/23 05:33:06;;;;;;;15.30;13.90;;;;;;;15.03;100.00;97343.01;106491;1274;22554;-80
2023/09/23 05:35:35;;;;;;;14.80;13.20;;;;;;;15.04;100.00;97352.09;106571;1275;24420;-80
2023/09/23 05:38:04;;;;;;;13.90;12.60;;;;;;;15.06;100.00;97354.48;106483;1283;24231;-79
2023/09/23 05:40:36;;;;;;;12.40;11.00;;;;;;;15.02;100.00;97356.46;106476;1268;23923;-80
2023/09/23 05:43:05;;;;;;;10.50;9.40;;;;;;;14.98;100.00;97347.73;106139;1284;22547;-80
2023/09/23 05:45:35;;;;;;;9.40;8.50;;;;;;;14.94;100.00;97344.56;106172;1271;25249;-79
2023/09/23 05:48:05;;;;;;;9.80;8.90;;;;;;;14.91;100.00;97341.38;106131;1273;22532;-80
2023/09/23 05:50:34;;;;;;;10.80;9.60;;;;;;;14.90;100.00;97350.56;106604;1281;22572;-80
2023/09/23 05:53:02;;;;;;;9.40;8.50;;;;;;;14.85;100.00;97350.18;106466;1278;22563;-80
2023/09/23 05:55:31;;;;;;;7.90;6.90;;;;;;;14.79;100.00;97353.19;106165;1283;24465;-80
2023/09/23 05:57:59;;;;;;;9.20;6.40;;;;;;;14.76;100.00;97358.65;106119;1274;22553;-79
2023/09/23 06:00:27;;;;;;;6.50;5.90;;;;;;;14.74;100.00;97371.45;106462;1282;25458;-79
2023/09/23 06:02:55;;;;;;;7.80;5.70;;;;;;;14.75;100.00;97383.42;106519;1271;24538;-80
2023/09/23 06:05:23;;;;;;;6.50;5.80;;;;;;;14.74;100.00;97383.41;106513;1271;24268;-82
2023/09/23 06:07:54;;;;;;;7.60;5.50;;;;;;;14.72;100.00;97372.48;106594;1284;22595;-82
2023/09/23 06:10:22;;;;;;;6.90;5.50;;;;;;;14.72;100.00;97371.16;106506;1280;23894;-82
2023/09/23 06:12:50;;;;;;;6.00;5.10;;;;;;;14.67;100.00;97370.06;106179;1284;22533;-81
2023/09/23 06:15:19;;;;;;;6.40;4.70;;;;;;;14.62;100.00;97372.78;106128;1282;22652;-81
2023/09/23 06:17:47;;;;;;;6.00;4.50;;;;;;;14.58;100.00;97382.77;106467;1273;25354;-81
2023/09/23 06:20:15;;;;;;;5.20;4.20;;;;;;;14.58;100.00;97389.36;106207;1275;23024;-81
2023/09/23 06:22:43;;;;;;;5.10;3.00;;;;;;;14.61;100.00;97386.59;106283;1268;22613;-80
2023/09/23 06:25:11;;;;;;;3.50;2.20;;;;;;;14.57;100.00;97382.63;106825;1265;25424;-84
2023/09/23 06:27:39;;;;;;;5.40;3.30;;;;;;;14.51;100.00;97397.89;106447;1286;22540;-81
2023/09/23 06:30:08;;;;;;;4.80;3.30;;;;;;;14.51;100.00;97424.14;106473;1280;24891;-82
2023/09/23 06:32:36;;;;;;;6.00;3.10;;;;;;;14.54;100.00;97428.08;106439;1286;22605;-83
2023/09/23 06:35:04;;;;;;;5.30;3.30;;;;;;;14.59;100.00;97417.34;106598;1284;22679;-81
2023/09/23 06:37:32;;;;;;;4.40;2.80;;;;;;;14.59;100.00;97422.80;106637;1284;22577;-81
2023/09/23 06:40:01;;;;;;;6.20;2.90;;;;;;;14.56;100.00;97434.55;106521;1279;22657;-81
2023/09/23 06:42:29;;;;;;;4.00;2.50;;;;;;;14.54;100.00;97441.92;106560;1273;22593;-79
2023/09/23 06:44:58;;;;;;;5.00;2.30;;;;;;;14.56;100.00;97448.63;106583;1284;25327;-81
2023/09/23 06:47:26;;;;;;;5.30;3.00;;;;;;;14.59;100.00;97445.70;106622;1274;25349;-79
2023/09/23 06:49:55;;;;;;;4.30;2.70;;;;;;;14.60;100.00;97436.79;106610;1278;22550;-81
2023/09/23 06:52:23;;;;;;;5.00;2.20;;;;;;;14.61;100.00;97430.84;106554;1283;24398;-80
2023/09/23 06:54:52;;;;;;;3.10;2.00;;;;;;;14.61;100.00;97440.20;106579;1265;24425;-79
2023/09/23 06:57:20;;;;;;;2.20;1.90;;;;;;;14.62;100.00;97443.34;106572;1278;22551;-80
2023/09/23 06:59:49;;;;;;;2.60;1.90;;;;;;;14.62;100.00;97449.23;106538;1270;22537;-80
2023/09/23 07:02:17;;;;;;;2.70;1.70;;;;;;;14.60;100.00;97457.92;106638;1284;26715;-80
2023/09/23 07:04:46;;;;;;;3.30;2.30;;;;;;;14.59;100.00;97471.30;106684;1284;22639;-80
2023/09/23 07:07:15;;;;;;;3.70;2.70;;;;;;;14.60;100.00;97477.59;106570;1272;24043;-80
2023/09/23 07:09:43;;;;;;;6.40;2.80;;;;;;;14.58;100.00;97475.36;106584;1277;22534;-80
2023/09/23 07:12:12;;;;;;;4.70;2.80;;;;;;;14.59;100.00;97480.75;106552;1276;22783;-80
2023/09/23 07:14:41;;;;;;;4.70;2.80;;;;;;;14.62;100.00;97476.11;106496;1284;22645;-81
2023/09/23 07:17:09;;;;;;;7.30;2.90;;;;;;;14.65;100.00;97481.58;106591;1263;25470;-80
2023/09/23 07:19:37;;;;;;;4.70;3.20;;;;;;;14.69;100.00;97490.30;106547;1284;22560;-81
2023/09/23 07:22:05;;;;;;;7.10;3.70;;;;;;;14.70;100.00;97496.69;106538;1262;22581;-80
2023/09/23 07:24:37;;;;;;;10.60;3.50;;;;;;;14.72;100.00;97497.61;106586;1278;23978;-81
2023/09/23 07:27:05;;;;;;;7.90;3.20;;;;;;;14.74;100.00;97499.67;106512;1269;25367;-81
2023/09/23 07:29:33;;;;;;;5.30;3.40;;;;;;;14.75;100.00;97502.60;106555;1278;22535;-80
2023/09/23 07:32:01;;;;;;;4.60;3.60;;;;;;;14.79;100.00;97502.09;106515;1278;24407;-81
2023/09/23 07:34:29;;;;;;;5.30;3.20;;;;;;;14.81;100.00;97510.06;106712;1269;22693;-82
2023/09/23 07:36:58;;;;;;;5.60;3.60;;;;;;;14.86;100.00;97511.09;106556;1281;25360;-81
2023/09/23 07:39:26;;;;;;;4.50;3.50;;;;;;;14.87;100.00;97507.48;106512;1284;25298;-81
2023/09/23 07:41:54;;;;;;;3.30;2.90;;;;;;;14.89;100.00;97507.33;106420;1284;22549;-81
2023/09/23 07:44:23;;;;;;;4.10;2.90;;;;;;;14.94;100.00;97510.98;106441;1284;25521;-81
2023/09/23 07:46:52;;;;;;;4.80;3.00;;;;;;;14.93;100.00;97517.93;106542;1274;22543;-81
2023/09/23 07:49:20;;;;;;;3.80;3.20;;;;;;;14.90;100.00;97523.81;106660;1272;24392;-81
2023/09/23 07:51:48;;;;;;;3.40;3.10;;;;;;;14.88;100.00;97523.58;106545;1276;22547;-81
2023/09/23 07:54:16;;;;;;;3.70;3.20;;;;;;;14.89;100.00;97529.44;106596;1281;22594;-81
2023/09/23 07:56:46;;;;;;;3.80;3.30;;;;;;;14.92;100.00;97536.20;106536;1284;22580;-81
2023/09/23 07:59:14;;;;;;;4.50;3.80;;;;;;;14.93;100.00;97541.33;106582;1261;22744;-82
2023/09/23 08:01:42;;;;;;;4.10;3.70;;;;;;;14.97;100.00;97539.06;106578;1279;22755;-82
2023/09/23 08:04:10;;;;;;;4.40;4.00;;;;;;;14.97;100.00;97537.59;106543;1269;22566;-81
2023/09/23 08:06:38;;;;;;;5.20;4.20;;;;;;;14.95;100.00;97534.67;106455;1284;22550;-82
2023/09/23 08:09:06;;;;;;;5.50;4.80;;;;;;;14.96;100.00;97530.27;106602;1274;22547;-81
2023/09/23 08:11:34;;;;;;;6.20;5.40;;;;;;;14.95;100.00;97534.83;106470;1284;24137;-81
2023/09/23 08:14:03;;;;;;;8.10;5.50;;;;;;;14.95;100.00;97539.15;106524;1274;22748;-82
2023/09/23 08:16:31;;;;;;;6.40;4.40;;;;;;;14.95;100.00;97547.45;106562;1274;26166;-82
2023/09/23 08:18:59;;;;;;;6.00;4.80;;;;;;;14.88;100.00;97550.61;106490;1282;22595;-82
2023/09/23 08:21:27;;;;;;;5.60;3.60;;;;;;;14.80;100.00;97553.29;106418;1284;25352;-81
2023/09/23 08:23:57;;;;;;;5.70;3.40;;;;;;;14.70;100.00;97552.25;106418;1273;22591;-83
2023/09/23 08:26:25;;;;;;;4.90;3.60;;;;;;;14.66;100.00;97544.42;106459;1284;25430;-83
2023/09/23 08:28:54;;;;;;;4.80;3.50;;;;;;;14.60;100.00;97544.38;106409;1276;22545;-83
2023/09/23 08:31:22;;;;;;;5.00;3.30;;;;;;;14.57;100.00;97549.08;106461;1277;23002;-83
2023/09/23 08:33:50;;;;;;;10.20;4.60;;;;;;;14.60;100.00;97557.70;106542;1284;24352;-83
2023/09/23 08:36:18;;;;;;;7.70;5.80;;;;;;;14.60;100.00;97560.17;106501;1278;24239;-82
2023/09/23 08:38:46;;;;;;;8.60;5.70;;;;;;;14.61;100.00;97571.73;106432;1283;24434;-82
2023/09/23 08:41:18;;;;;;;9.00;6.30;;;;;;;14.61;100.00;97575.31;106539;1276;22777;-82
2023/09/23 08:43:50;;;;;;;9.70;7.70;;;;;;;14.63;100.00;97582.66;106518;1284;24056;-82
2023/09/23 08:46:19;;;;;;;10.40;9.10;;;;;;;14.61;100.00;97601.88;106632;1273;23898;-81
2023/09/23 08:48:47;;;;;;;12.30;9.70;;;;;;;14.60;100.00;97606.17;106531;1281;23455;-81
2023/09/23 08:51:19;;;;;;;12.30;10.20;;;;;;;14.58;100.00;97604.27;106494;1281;22573;-80
2023/09/23 08:53:51;;;;;;;10.90;9.70;;;;;;;14.53;100.00;97597.52;106505;1277;22558;-81
2023/09/23 08:56:20;;;;;;;11.20;10.10;;;;;;;14.51;100.00;97586.83;106610;1270;22537;-81
2023/09/23 08:58:49;;;;;;;12.60;10.60;;;;;;;14.50;100.00;97589.77;106575;1284;22545;-80
2023/09/23 09:01:17;;;;;;;14.30;11.00;;;;;;;14.48;100.00;97607.89;106554;1273;22857;-80
2023/09/23 09:03:47;;;;;;;11.50;10.30;;;;;;;14.47;100.00;97607.61;106605;1284;24452;-78
2023/09/23 09:06:17;;;;;;;10.90;9.70;;;;;;;14.45;100.00;97611.52;106696;1273;22542;-81
2023/09/23 09:08:45;;;;;;;12.30;10.70;;;;;;;14.44;100.00;97604.90;106662;1277;24265;-79
2023/09/23 09:11:22;;;;;;;14.10;11.60;;;;;;;14.43;100.00;97593.08;106611;1282;22548;-81
2023/09/23 09:13:50;;;;;;;12.00;10.00;;;;;;;14.40;100.00;97588.92;106436;1284;22531;-80
2023/09/23 09:16:19;;;;;;;11.00;8.80;;;;;;;14.38;100.00;97589.89;106525;1280;24238;-81
2023/09/23 09:18:51;;;;;;;8.30;7.40;;;;;;;14.40;100.00;97587.30;106581;1270;24275;-81
2023/09/23 09:21:19;;;;;;;9.30;7.60;;;;;;;14.46;100.00;97589.22;106598;1277;22556;-81
2023/09/23 09:23:47;;;;;;;11.90;9.50;;;;;;;14.48;100.00;97593.66;106542;1270;22844;-79
2023/09/23 09:26:18;;;;;;;9.10;8.20;;;;;;;14.51;100.00;97601.60;106552;1284;22562;-80
2023/09/23 09:28:46;;;;;;;8.90;7.90;;;;;;;14.53;100.00;97599.08;106640;1273;22606;-83
2023/09/23 09:31:17;;;;;;;9.80;7.50;;;;;;;14.56;100.00;97594.05;106546;1264;22675;-83
2023/09/23 09:33:47;;;;;;;10.30;7.10;;;;;;;14.57;100.00;97600.67;106552;1281;24212;-83
2023/09/23 09:36:18;;;;;;;10.10;7.30;;;;;;;14.61;100.00;97597.70;106568;1274;22555;-83
2023/09/23 09:38:51;;;;;;;11.60;7.70;;;;;;;14.68;100.00;97593.03;106623;1277;25313;-83
2023/09/23 09:41:35;;;;;;;13.60;10.70;;;;;;;14.75;100.00;97586.37;106607;1277;22127;-83
2023/09/23 09:44:05;;;;;;;14.50;11.40;;;;;;;14.77;100.00;97579.98;106622;1284;22549;-83
2023/09/23 09:46:35;;;;;;;12.80;11.20;;;;;;;14.77;100.00;97581.55;106613;1272;22538;-84
2023/09/23 09:49:04;;;;;;;13.30;10.50;;;;;;;14.78;100.00;97585.30;106482;1273;22628;-84
2023/09/23 09:51:33;;;;;;;12.00;9.30;;;;;;;14.84;100.00;97591.08;106505;1283;24338;-84
2023/09/23 09:54:05;;;;;;;10.30;9.00;;;;;;;14.84;100.00;97594.73;106542;1282;22558;-83
2023/09/23 09:56:33;;;;;;;10.80;8.40;;;;;;;14.85;100.00;97603.77;106601;1273;25335;-84
2023/09/23 09:59:03;;;;;;;16.20;13.20;;;;;;;14.87;100.00;97615.84;106520;1270;22767;-82
2023/09/23 10:01:34;;;;;;;13.10;9.20;;;;;;;14.88;100.00;97617.77;106508;1282;22537;-83
2023/09/23 10:04:11;;;;;;;11.70;9.10;;;;;;;14.87;100.00;97613.14;106531;1284;22640;-84
2023/09/23 10:06:39;;;;;;;10.80;8.90;;;;;;;14.87;100.00;97610.88;106479;1284;22565;-83
2023/09/23 10:09:17;;;;;;;10.00;7.90;;;;;;;14.89;100.00;97605.14;106534;1261;24365;-82
2023/09/23 10:11:53;;;;;;;11.90;9.10;;;;;;;14.98;100.00;97604.67;106447;1280;24371;-82
2023/09/23 10:14:22;;;;;;;7.90;6.40;;;;;;;15.07;100.00;97606.38;106677;1273;24378;-83
2023/09/23 10:17:03;;;;;;;9.80;7.30;;;;;;;15.08;100.00;97592.46;106590;1277;22686;-82
2023/09/23 10:19:33;;;;;;;8.80;6.40;;;;;;;15.10;100.00;97589.29;106450;1282;22776;-81
2023/09/23 10:22:09;;;;;;;6.80;5.60;;;;;;;15.15;100.00;97583.34;106590;1270;23225;-82
2023/09/23 10:24:37;;;;;;;5.70;4.50;;;;;;;15.22;100.00;97573.80;106588;1284;22761;-83
2023/09/23 10:27:06;;;;;;;7.00;4.80;;;;;;;15.29;100.00;97571.13;106661;1271;22541;-84
2023/09/23 10:29:45;;;;;;;5.50;4.30;;;;;;;15.36;100.00;97574.56;108070;1284;25266;-82
2023/09/23 10:32:15;;;;;;;6.50;4.60;;;;;;;15.43;100.00;97585.56;107731;1273;22541;-82
2023/09/23 10:34:52;;;;;;;5.00;4.00;;;;;;;15.47;100.00;97594.02;108018;1284;23851;-81
2023/09/23 10:37:46;;;;;;;4.00;3.30;;;;;;;15.51;100.00;97592.89;107828;1284;23264;-82
2023/09/23 10:40:17;;;;;;;6.70;4.40;;;;;;;15.67;100.00;97589.60;106551;1276;22677;-81
2023/09/23 10:42:46;;;;;;;5.40;3.70;;;;;;;15.83;100.00;97585.86;106687;1285;22555;-81
2023/09/23 10:45:20;;;;;;;5.20;3.50;;;;;;;15.93;100.00;97584.79;106520;1285;25346;-82
2023/09/23 10:47:48;;;;;;;5.20;4.00;;;;;;;15.93;100.00;97594.86;106568;1277;22549;-82
2023/09/23 10:50:17;;;;;;;5.10;4.00;;;;;;;15.93;100.00;97603.55;106552;1279;22557;-82
2023/09/23 10:52:45;;;;;;;4.90;4.20;;;;;;;15.95;100.00;97606.50;107104;1280;23907;-82
2023/09/23 10:55:13;;;;;;;5.90;3.80;;;;;;;15.93;100.00;97611.33;106546;1272;24204;-81
2023/09/23 10:57:42;;;;;;;4.20;3.40;;;;;;;15.92;100.00;97611.83;106384;1273;22970;-82
2023/09/23 11:00:16;;;;;;;5.60;3.80;;;;;;;15.92;100.00;97600.58;106408;1285;22663;-83
2023/09/23 11:02:51;;;;;;;5.90;4.00;;;;;;;15.81;100.00;97594.96;106403;1269;22579;-82
2023/09/23 11:05:22;;;;;;;5.00;3.90;;;;;;;15.74;100.00;97597.67;106223;1273;22493;-82
2023/09/23 11:07:54;;;;;;;5.80;3.60;;;;;;;15.68;100.00;97592.38;106171;1277;22934;-82
2023/09/23 11:10:26;;;;;;;4.50;3.90;;;;;;;15.64;100.00;97591.85;106517;1278;22645;-79
2023/09/23 11:12:55;;;;;;;4.90;3.70;;;;;;;15.54;100.00;97597.00;106566;1270;25341;-81
2023/09/23 11:15:23;;;;;;;6.00;3.80;;;;;;;15.51;100.00;97603.04;106612;1276;24366;-79
2023/09/23 11:17:55;;;;;;;6.70;5.30;;;;;;;15.48;100.00;97609.53;106491;1276;22592;-83
2023/09/23 11:20:27;;;;;;;4.80;3.50;;;;;;;15.44;100.00;97615.62;106506;1262;22775;-80
2023/09/23 11:23:05;;;;;;;7.50;4.20;;;;;;;15.37;100.00;97615.62;106476;1270;22712;-80
2023/09/23 11:25:42;;;;;;;6.10;3.70;;;;;;;15.32;100.00;97602.33;106297;1270;24453;-79
2023/09/23 11:28:22;;;;;;;5.00;3.40;;;;;;;15.28;100.00;97594.08;106292;1280;22711;-80